createdAt,value
2023-03-27T00:01:33.657Z,7.62
2023-03-27T00:04:01.433Z,7.31
2023-03-27T00:06:28.706Z,6.92
2023-03-27T00:08:56.070Z,6.88
2023-03-27T00:11:25.332Z,6.77
2023-03-27T00:13:55.081Z,6.71
2023-03-27T00:16:27.108Z,6.59
2023-03-27T00:18:55.419Z,6.69
2023-03-27T00:21:23.484Z,6.64
2023-03-27T00:23:51.073Z,6.71
2023-03-27T00:26:18.615Z,6.60
2023-03-27T00:28:47.805Z,6.68
2023-03-27T00:31:17.594Z,6.45
2023-03-27T00:33:46.326Z,6.49
2023-03-27T00:36:15.488Z,6.50
2023-03-27T00:38:44.001Z,6.48
2023-03-27T00:41:13.499Z,6.50
2023-03-27T00:43:49.782Z,6.45
2023-03-27T00:46:22.786Z,6.39
2023-03-27T00:48:52.759Z,6.58
2023-03-27T00:51:24.135Z,6.83
2023-03-27T00:53:53.167Z,6.96
2023-03-27T00:56:23.433Z,7.02
2023-03-27T00:59:11.123Z,6.79
2023-03-27T01:01:40.745Z,6.55
2023-03-27T01:04:09.966Z,6.42
2023-03-27T01:06:39.937Z,6.50
2023-03-27T01:09:09.603Z,6.35
2023-03-27T01:11:59.158Z,6.48
2023-03-27T01:14:54.456Z,6.39
2023-03-27T01:17:51.407Z,6.44
2023-03-27T01:20:32.794Z,6.39
2023-03-27T01:23:58.615Z,6.50
2023-03-27T01:26:37.068Z,6.52
2023-03-27T01:29:26.408Z,6.62
2023-03-27T01:32:32.789Z,6.49
2023-03-27T01:35:24.070Z,6.39
2023-03-27T01:38:36.304Z,6.40
2023-03-27T01:41:26.624Z,6.45
2023-03-27T01:44:17.680Z,6.45
2023-03-27T01:47:09.974Z,6.25
2023-03-27T01:49:55.889Z,6.21
2023-03-27T01:52:27.648Z,6.15
2023-03-27T01:55:03.760Z,6.01
2023-03-27T01:57:51.505Z,5.97
2023-03-27T02:00:22.796Z,6.16
2023-03-27T02:03:11.884Z,6.40
2023-03-27T02:05:49.105Z,6.54
2023-03-27T02:08:45.347Z,6.59
2023-03-27T02:11:15.771Z,6.58
2023-03-27T02:13:57.826Z,6.43
2023-03-27T02:16:34.155Z,6.58
2023-03-27T02:19:13.550Z,6.47
2023-03-27T02:21:42.071Z,6.46
2023-03-27T02:24:09.658Z,6.57
2023-03-27T02:26:37.362Z,6.47
2023-03-27T02:29:32.220Z,6.76
2023-03-27T02:32:18.560Z,6.89
2023-03-27T02:34:50.711Z,6.60
2023-03-27T02:37:33.986Z,6.72
2023-03-27T02:40:33.550Z,6.64
2023-03-27T02:43:16.644Z,6.70
2023-03-27T02:46:03.121Z,6.87
2023-03-27T02:48:46.339Z,6.83
2023-03-27T02:51:22.751Z,6.74
2023-03-27T02:54:32.724Z,6.74
2023-03-27T02:57:08.566Z,6.70
2023-03-27T02:59:45.710Z,6.70
2023-03-27T03:02:20.567Z,6.71
2023-03-27T03:04:57.458Z,6.69
2023-03-27T03:07:34.933Z,6.70
2023-03-27T03:10:02.323Z,6.71
2023-03-27T03:12:29.765Z,6.69
2023-03-27T03:14:58.431Z,6.60
2023-03-27T03:17:25.936Z,6.62
2023-03-27T03:19:54.068Z,6.52
2023-03-27T03:22:21.302Z,6.42
2023-03-27T03:24:48.823Z,6.51
2023-03-27T03:27:16.228Z,6.66
2023-03-27T03:29:44.559Z,6.70
2023-03-27T03:32:13.695Z,6.62
2023-03-27T03:34:46.985Z,6.62
2023-03-27T03:37:14.096Z,6.60
2023-03-27T03:39:41.281Z,6.57
2023-03-27T03:42:08.657Z,6.56
2023-03-27T03:44:37.475Z,6.58
2023-03-27T03:47:05.441Z,6.55
2023-03-27T03:49:34.016Z,6.55
2023-03-27T03:52:03.712Z,6.54
2023-03-27T03:54:33.179Z,6.54
2023-03-27T03:57:00.579Z,6.53
2023-03-27T03:59:28.621Z,6.42
2023-03-27T04:01:55.955Z,6.47
2023-03-27T04:04:23.407Z,6.51
2023-03-27T04:06:51.335Z,6.41
2023-03-27T04:09:20.067Z,6.37
2023-03-27T04:11:53.589Z,6.19
2023-03-27T04:14:21.802Z,6.30
2023-03-27T04:16:48.889Z,6.20
2023-03-27T04:19:18.471Z,6.13
2023-03-27T04:21:47.533Z,6.18
2023-03-27T04:24:14.933Z,6.23
2023-03-27T04:26:43.686Z,6.21
2023-03-27T04:29:12.177Z,6.23
2023-03-27T04:31:39.477Z,6.12
2023-03-27T04:34:08.842Z,6.13
2023-03-27T04:36:36.360Z,6.21
2023-03-27T04:39:04.312Z,6.23
2023-03-27T04:41:39.094Z,6.22
2023-03-27T04:44:06.314Z,6.15
2023-03-27T04:46:33.774Z,6.12
2023-03-27T04:49:01.257Z,6.13
2023-03-27T04:51:32.671Z,6.15
2023-03-27T04:54:00.301Z,6.23
2023-03-27T04:56:27.692Z,6.32
2023-03-27T04:58:56.224Z,6.37
2023-03-27T05:01:26.080Z,6.46
2023-03-27T05:03:54.025Z,6.50
2023-03-27T05:06:21.652Z,6.54
2023-03-27T05:08:50.881Z,6.57
2023-03-27T05:11:18.153Z,6.54
2023-03-27T05:13:46.614Z,6.52
2023-03-27T05:16:14.101Z,6.52
2023-03-27T05:18:42.338Z,6.52
2023-03-27T05:21:11.052Z,6.57
2023-03-27T05:23:39.298Z,6.58
2023-03-27T05:26:08.891Z,6.61
2023-03-27T05:28:37.397Z,6.59
2023-03-27T05:31:05.288Z,6.56
2023-03-27T05:33:32.949Z,6.54
2023-03-27T05:36:00.401Z,6.48
2023-03-27T05:38:27.561Z,6.46
2023-03-27T05:40:54.852Z,6.45
2023-03-27T05:43:23.201Z,6.41
2023-03-27T05:45:50.698Z,6.34
2023-03-27T05:48:18.147Z,6.35
2023-03-27T05:50:45.611Z,6.26
2023-03-27T05:53:13.039Z,6.29
2023-03-27T05:55:41.226Z,6.16
2023-03-27T05:58:12.036Z,6.21
2023-03-27T06:00:43.107Z,6.10
2023-03-27T06:03:14.610Z,6.09
2023-03-27T06:05:42.950Z,6.06
2023-03-27T06:08:12.019Z,6.07
2023-03-27T06:10:44.196Z,6.14
2023-03-27T06:13:13.898Z,6.17
2023-03-27T06:15:43.769Z,6.19
2023-03-27T06:18:11.906Z,6.00
2023-03-27T06:20:40.602Z,5.80
2023-03-27T06:23:09.580Z,5.77
2023-03-27T06:25:39.586Z,5.57
2023-03-27T06:28:09.820Z,5.45
2023-03-27T06:30:39.215Z,5.30
2023-03-27T06:33:08.298Z,5.22
2023-03-27T06:35:36.128Z,5.22
2023-03-27T06:38:03.822Z,5.18
2023-03-27T06:40:32.677Z,4.93
2023-03-27T06:43:03.777Z,4.78
2023-03-27T06:45:43.665Z,4.66
2023-03-27T06:48:20.380Z,4.58
2023-03-27T06:50:52.102Z,4.60
2023-03-27T06:53:27.414Z,4.55
2023-03-27T06:55:58.154Z,4.40
2023-03-27T06:58:26.050Z,4.41
2023-03-27T07:00:54.228Z,4.10
2023-03-27T07:03:23.785Z,4.02
2023-03-27T07:05:53.280Z,3.95
2023-03-27T07:08:24.730Z,3.85
2023-03-27T07:11:10.612Z,3.51
2023-03-27T07:13:39.167Z,3.37
2023-03-27T07:16:08.336Z,3.33
2023-03-27T07:18:36.478Z,3.15
2023-03-27T07:21:03.769Z,2.92
2023-03-27T07:23:31.504Z,2.84
2023-03-27T07:26:00.277Z,2.71
2023-03-27T07:28:27.701Z,2.65
2023-03-27T07:30:55.220Z,2.67
2023-03-27T07:33:25.089Z,2.53
2023-03-27T07:35:52.688Z,2.49
2023-03-27T07:38:20.221Z,2.39
2023-03-27T07:40:47.447Z,2.33
2023-03-27T07:43:14.808Z,2.29
2023-03-27T07:45:42.451Z,2.04
2023-03-27T07:48:16.418Z,1.96
2023-03-27T07:50:44.210Z,1.88
2023-03-27T07:53:33.755Z,1.81
2023-03-27T07:56:00.285Z,1.66
2023-03-27T07:58:27.880Z,1.56
2023-03-27T08:01:02.651Z,1.54
2023-03-27T08:03:32.214Z,1.45
2023-03-27T08:06:01.029Z,1.42
2023-03-27T08:08:28.797Z,1.40
2023-03-27T08:10:57.914Z,1.28
2023-03-27T08:13:25.440Z,1.23
2023-03-27T08:15:53.146Z,1.09
2023-03-27T08:18:20.780Z,1.02
2023-03-27T08:20:48.701Z,1.07
2023-03-27T08:23:16.610Z,1.00
2023-03-27T08:25:44.036Z,0.94
2023-03-27T08:28:12.746Z,0.93
2023-03-27T08:30:42.151Z,0.84
2023-03-27T08:33:10.130Z,0.78
2023-03-27T08:35:37.617Z,0.81
2023-03-27T08:38:09.167Z,0.78
2023-03-27T08:40:50.979Z,0.82
2023-03-27T08:43:45.051Z,0.83
2023-03-27T08:46:23.931Z,0.75
2023-03-27T08:48:57.908Z,0.89
2023-03-27T08:51:33.699Z,0.98
2023-03-27T08:54:14.824Z,1.01
2023-03-27T08:56:49.308Z,1.03
2023-03-27T08:59:24.873Z,1.11
2023-03-27T09:02:09.379Z,1.08
2023-03-27T09:05:00.488Z,1.02
2023-03-27T09:07:41.648Z,1.07
2023-03-27T09:10:23.138Z,1.01
2023-03-27T09:12:58.272Z,0.99
2023-03-27T09:15:42.684Z,1.00
2023-03-27T09:18:28.802Z,1.00
2023-03-27T09:21:04.541Z,0.86
2023-03-27T09:23:50.510Z,0.86
2023-03-27T09:26:34.998Z,0.93
2023-03-27T09:29:04.307Z,1.03
2023-03-27T09:31:41.353Z,1.05
2023-03-27T09:34:13.319Z,1.10
2023-03-27T09:36:42.167Z,1.08
2023-03-27T09:39:16.155Z,1.07
2023-03-27T09:41:51.476Z,1.10
2023-03-27T09:44:26.114Z,1.23
2023-03-27T09:47:02.790Z,1.20
2023-03-27T09:49:30.379Z,1.28
2023-03-27T09:51:59.741Z,1.29
2023-03-27T09:54:32.376Z,1.53
2023-03-27T09:57:12.804Z,1.51
2023-03-27T09:59:55.359Z,1.48
2023-03-27T10:02:28.150Z,1.49
2023-03-27T10:05:03.957Z,1.60
2023-03-27T10:07:31.229Z,1.58
2023-03-27T10:10:11.976Z,1.59
2023-03-27T10:12:41.037Z,1.65
2023-03-27T10:15:32.821Z,1.69
2023-03-27T10:18:05.046Z,1.68
2023-03-27T10:20:32.967Z,1.87
2023-03-27T10:23:08.880Z,1.96
2023-03-27T10:25:50.050Z,2.06
2023-03-27T10:28:27.910Z,2.10
2023-03-27T10:31:02.516Z,2.07
2023-03-27T10:33:35.536Z,2.07
2023-03-27T10:36:04.778Z,2.22
2023-03-27T10:38:33.848Z,2.36
2023-03-27T10:41:07.390Z,2.42
2023-03-27T10:43:40.505Z,2.37
2023-03-27T10:46:15.458Z,2.50
2023-03-27T10:49:10.463Z,2.51
2023-03-27T10:51:53.541Z,2.51
2023-03-27T10:54:47.900Z,2.63
2023-03-27T10:57:24.476Z,2.56
2023-03-27T11:00:12.030Z,2.49
2023-03-27T11:03:12.278Z,2.57
2023-03-27T11:05:48.556Z,2.68
2023-03-27T11:08:34.955Z,2.52
2023-03-27T11:11:21.432Z,2.42
2023-03-27T11:13:49.754Z,2.46
2023-03-27T11:16:44.608Z,2.64
2023-03-27T11:19:12.039Z,2.84
2023-03-27T11:21:54.242Z,3.05
2023-03-27T11:24:50.794Z,2.84
2023-03-27T11:27:30.711Z,2.88
2023-03-27T11:30:10.634Z,2.99
2023-03-27T11:32:47.086Z,3.04
2023-03-27T11:35:25.065Z,3.18
2023-03-27T11:38:03.147Z,3.26
2023-03-27T11:40:39.763Z,3.18
2023-03-27T11:43:13.143Z,3.01
2023-03-27T11:46:02.892Z,2.93
2023-03-27T11:48:51.923Z,3.01
2023-03-27T11:52:01.184Z,3.01
2023-03-27T11:54:55.168Z,2.99
2023-03-27T11:57:26.144Z,2.88
2023-03-27T12:00:16.622Z,3.03
2023-03-27T12:02:57.041Z,3.16
2023-03-27T12:05:55.597Z,3.20
2023-03-27T12:09:17.427Z,3.16
2023-03-27T12:11:56.582Z,3.14
2023-03-27T12:14:41.770Z,3.30
2023-03-27T12:17:46.598Z,3.12
2023-03-27T12:20:27.364Z,3.16
2023-03-27T12:23:04.875Z,3.17
2023-03-27T12:26:10.430Z,3.11
2023-03-27T12:28:54.644Z,2.98
2023-03-27T12:31:49.604Z,3.10
2023-03-27T12:34:50.488Z,3.11
2023-03-27T12:37:23.513Z,3.15
2023-03-27T12:39:59.335Z,3.28
2023-03-27T12:42:43.939Z,3.49
2023-03-27T12:45:20.158Z,3.57
2023-03-27T12:48:10.872Z,3.44
2023-03-27T12:50:51.541Z,3.44
2023-03-27T12:53:28.104Z,3.52
2023-03-27T12:56:17.811Z,3.77
2023-03-27T12:58:47.417Z,3.61
2023-03-27T13:01:48.975Z,3.70
2023-03-27T13:04:43.447Z,3.78
2023-03-27T13:07:43.648Z,3.90
2023-03-27T13:10:24.865Z,4.06
2023-03-27T13:13:20.517Z,3.78
2023-03-27T13:16:12.108Z,3.76
2023-03-27T13:19:12.941Z,3.84
2023-03-27T13:21:59.013Z,3.97
2023-03-27T13:24:41.036Z,4.04
2023-03-27T13:27:36.078Z,4.18
2023-03-27T13:30:04.635Z,4.07
2023-03-27T13:32:40.305Z,4.05
2023-03-27T13:35:23.170Z,4.02
2023-03-27T13:37:50.216Z,3.86
2023-03-27T13:40:24.792Z,3.83
2023-03-27T13:42:59.268Z,3.69
2023-03-27T13:45:39.176Z,3.72
2023-03-27T13:48:40.144Z,3.72
2023-03-27T13:51:26.841Z,3.62
2023-03-27T13:54:15.569Z,3.66
2023-03-27T13:56:59.322Z,3.77
2023-03-27T13:59:50.366Z,4.24
2023-03-27T14:02:49.589Z,4.95
2023-03-27T14:05:59.148Z,5.12
2023-03-27T14:08:38.411Z,5.78
2023-03-27T14:11:30.881Z,5.87
2023-03-27T14:14:21.376Z,5.54
2023-03-27T14:17:09.334Z,5.17
2023-03-27T14:20:01.695Z,4.86
2023-03-27T14:22:40.918Z,4.93
2023-03-27T14:25:40.264Z,4.99
2023-03-27T14:28:10.601Z,5.02
2023-03-27T14:30:56.223Z,5.03
2023-03-27T14:33:23.850Z,5.01
2023-03-27T14:35:57.887Z,4.93
2023-03-27T14:38:30.662Z,4.83
2023-03-27T14:41:00.162Z,5.29
2023-03-27T14:43:30.982Z,5.51
2023-03-27T14:46:07.757Z,5.39
2023-03-27T14:48:39.121Z,5.13
2023-03-27T14:51:10.683Z,4.81
2023-03-27T14:53:44.680Z,4.76
2023-03-27T14:56:29.242Z,4.65
2023-03-27T14:59:00.129Z,4.58
2023-03-27T15:01:32.281Z,4.35
2023-03-27T15:04:02.618Z,4.37
2023-03-27T15:06:36.781Z,4.44
2023-03-27T15:09:11.539Z,4.49
2023-03-27T15:11:40.445Z,4.39
2023-03-27T15:14:24.676Z,4.37
2023-03-27T15:17:07.034Z,4.36
2023-03-27T15:19:49.303Z,4.54
2023-03-27T15:22:27.949Z,4.66
2023-03-27T15:25:20.155Z,4.83
2023-03-27T15:27:57.830Z,4.71
2023-03-27T15:30:40.774Z,4.59
2023-03-27T15:33:17.621Z,4.44
2023-03-27T15:35:52.315Z,4.43
2023-03-27T15:38:29.127Z,4.39
2023-03-27T15:41:33.523Z,4.39
2023-03-27T15:44:13.252Z,4.62
2023-03-27T15:46:58.164Z,4.88
2023-03-27T15:49:31.333Z,4.71
2023-03-27T15:52:01.103Z,4.72
2023-03-27T15:54:35.696Z,4.59
2023-03-27T15:57:09.812Z,4.53
2023-03-27T15:59:51.615Z,4.43
2023-03-27T16:02:25.735Z,4.52
2023-03-27T16:04:58.490Z,4.57
2023-03-27T16:07:33.464Z,4.62
2023-03-27T16:10:06.974Z,4.66
2023-03-27T16:12:41.694Z,4.99
2023-03-27T16:15:47.086Z,5.32
2023-03-27T16:18:19.149Z,5.39
2023-03-27T16:20:49.209Z,5.24
2023-03-27T16:23:17.233Z,5.29
2023-03-27T16:25:45.282Z,5.60
2023-03-27T16:28:14.507Z,5.84
2023-03-27T16:30:42.438Z,5.89
2023-03-27T16:33:23.173Z,5.63
2023-03-27T16:35:51.392Z,5.23
2023-03-27T16:38:19.088Z,4.96
2023-03-27T16:40:46.920Z,4.91
2023-03-27T16:43:15.158Z,4.97
2023-03-27T16:45:43.689Z,5.03
2023-03-27T16:48:13.655Z,4.92
2023-03-27T16:50:42.556Z,4.83
2023-03-27T16:53:11.918Z,4.63
2023-03-27T16:55:39.289Z,4.66
2023-03-27T16:58:10.030Z,4.62
2023-03-27T17:00:38.824Z,4.48
2023-03-27T17:03:12.868Z,4.30
2023-03-27T17:05:44.386Z,4.16
2023-03-27T17:08:13.508Z,4.04
2023-03-27T17:10:42.585Z,3.95
2023-03-27T17:13:10.287Z,3.89
2023-03-27T17:15:41.255Z,3.79
2023-03-27T17:18:09.492Z,3.62
2023-03-27T17:20:37.868Z,3.57
2023-03-27T17:23:12.300Z,3.49
2023-03-27T17:25:40.174Z,3.43
2023-03-27T17:28:09.956Z,3.32
2023-03-27T17:30:41.230Z,3.26
2023-03-27T17:33:15.845Z,3.17
2023-03-27T17:35:45.340Z,3.17
2023-03-27T17:38:12.875Z,3.10
2023-03-27T17:40:41.863Z,3.04
2023-03-27T17:43:11.536Z,3.01
2023-03-27T17:45:44.432Z,2.89
2023-03-27T17:48:15.377Z,2.87
2023-03-27T17:50:43.735Z,2.80
2023-03-27T17:53:15.297Z,2.69
2023-03-27T17:55:52.432Z,2.56
2023-03-27T17:58:22.458Z,2.45
2023-03-27T18:00:50.961Z,2.34
2023-03-27T18:03:18.815Z,2.23
2023-03-27T18:05:49.527Z,2.15
2023-03-27T18:08:18.890Z,2.16
2023-03-27T18:10:49.046Z,2.13
2023-03-27T18:13:23.821Z,2.15
2023-03-27T18:15:57.693Z,2.20
2023-03-27T18:18:26.876Z,2.19
2023-03-27T18:20:55.769Z,2.10
2023-03-27T18:23:23.403Z,1.94
2023-03-27T18:25:50.867Z,1.90
2023-03-27T18:28:18.670Z,1.81
2023-03-27T18:30:48.186Z,1.72
2023-03-27T18:33:17.287Z,1.67
2023-03-27T18:35:45.953Z,1.68
2023-03-27T18:38:20.103Z,1.53
2023-03-27T18:40:49.025Z,1.47
2023-03-27T18:43:18.403Z,1.39
2023-03-27T18:45:47.463Z,1.34
2023-03-27T18:48:18.182Z,1.14
2023-03-27T18:50:57.282Z,1.19
2023-03-27T18:53:28.901Z,1.14
2023-03-27T18:56:03.456Z,1.17
2023-03-27T18:58:32.276Z,1.05
2023-03-27T19:01:00.922Z,1.07
2023-03-27T19:03:35.584Z,1.07
2023-03-27T19:06:06.406Z,0.89
2023-03-27T19:08:36.367Z,0.91
2023-03-27T19:11:07.416Z,0.80
2023-03-27T19:13:37.247Z,0.92
2023-03-27T19:16:14.243Z,0.76
2023-03-27T19:18:44.952Z,0.61
2023-03-27T19:21:13.697Z,0.39
2023-03-27T19:23:43.581Z,0.23
2023-03-27T19:26:16.299Z,0.01
2023-03-27T19:28:48.232Z,-0.36
2023-03-27T19:31:17.720Z,-0.64
2023-03-27T19:33:48.201Z,-0.84
2023-03-27T19:36:19.358Z,-1.03
2023-03-27T19:38:47.561Z,-1.37
2023-03-27T19:41:22.495Z,-1.28
2023-03-27T19:43:58.341Z,-1.29
2023-03-27T19:46:30.630Z,-1.28
2023-03-27T19:48:59.979Z,-1.25
2023-03-27T19:51:31.515Z,-1.27
2023-03-27T19:53:59.941Z,-1.26
2023-03-27T19:56:28.170Z,-1.28
2023-03-27T19:58:57.458Z,-1.32
2023-03-27T20:01:29.242Z,-1.52
2023-03-27T20:04:00.594Z,-1.62
2023-03-27T20:06:30.605Z,-1.69
2023-03-27T20:09:01.842Z,-1.76
2023-03-27T20:11:30.220Z,-1.77
2023-03-27T20:14:07.618Z,-1.84
2023-03-27T20:16:35.951Z,-1.97
2023-03-27T20:19:04.222Z,-2.01
2023-03-27T20:21:39.940Z,-1.90
2023-03-27T20:24:11.523Z,-1.83
2023-03-27T20:26:41.095Z,-1.82
2023-03-27T20:29:12.405Z,-1.65
2023-03-27T20:31:41.224Z,-1.80
2023-03-27T20:34:10.071Z,-1.81
2023-03-27T20:36:39.389Z,-1.86
2023-03-27T20:39:09.401Z,-1.80
2023-03-27T20:41:39.279Z,-1.90
2023-03-27T20:44:16.647Z,-2.06
2023-03-27T20:46:52.265Z,-2.20
2023-03-27T20:51:59.942Z,-2.18
2023-03-27T20:54:27.995Z,-2.27
2023-03-27T20:56:56.147Z,-2.16
2023-03-27T20:59:30.855Z,-2.15
2023-03-27T21:01:59.534Z,-2.17
2023-03-27T21:04:28.467Z,-2.18
2023-03-27T21:06:56.796Z,-2.24
2023-03-27T21:09:26.046Z,-2.29
2023-03-27T21:11:57.390Z,-2.34
2023-03-27T21:14:24.926Z,-2.32
2023-03-27T21:16:54.387Z,-2.35
2023-03-27T21:19:29.914Z,-2.34
2023-03-27T21:21:57.437Z,-2.39
2023-03-27T21:24:24.838Z,-2.39
2023-03-27T21:26:52.342Z,-2.41
2023-03-27T21:29:21.101Z,-2.40
2023-03-27T21:31:48.387Z,-2.48
2023-03-27T21:34:15.865Z,-2.51
2023-03-27T21:36:43.341Z,-2.49
2023-03-27T21:39:10.889Z,-2.52
2023-03-27T21:41:44.399Z,-2.51
2023-03-27T21:44:11.690Z,-2.49
2023-03-27T21:46:40.274Z,-2.58
2023-03-27T21:49:10.674Z,-2.60
2023-03-27T21:51:38.168Z,-2.63
2023-03-27T21:54:05.630Z,-2.55
2023-03-27T21:56:33.247Z,-2.45
2023-03-27T21:59:00.594Z,-2.36
2023-03-27T22:01:29.078Z,-2.27
2023-03-27T22:04:02.356Z,-2.19
2023-03-27T22:06:30.385Z,-2.16
2023-03-27T22:08:57.648Z,-2.10
2023-03-27T22:11:24.945Z,-2.08
2023-03-27T22:13:52.428Z,-2.14
2023-03-27T22:16:19.924Z,-2.21
2023-03-27T22:18:54.666Z,-2.23
2023-03-27T22:21:24.781Z,-2.22
2023-03-27T22:23:56.460Z,-2.24
2023-03-27T22:26:36.305Z,-2.28
2023-03-27T22:29:06.369Z,-2.24
2023-03-27T22:31:34.284Z,-2.22
2023-03-27T22:34:04.617Z,-2.02
2023-03-27T22:36:34.438Z,-1.95
2023-03-27T22:39:02.262Z,-1.84
2023-03-27T22:41:31.792Z,-1.73
2023-03-27T22:44:02.040Z,-1.65
2023-03-27T22:46:29.419Z,-1.46
2023-03-27T22:48:58.336Z,-1.52
2023-03-27T22:51:28.653Z,-1.42
2023-03-27T22:54:01.920Z,-1.43
2023-03-27T22:56:29.215Z,-1.56
2023-03-27T22:58:58.127Z,-1.68
2023-03-27T23:01:29.955Z,-1.62
2023-03-27T23:03:57.519Z,-1.65
2023-03-27T23:06:24.821Z,-1.83
2023-03-27T23:08:52.894Z,-1.92
2023-03-27T23:11:20.618Z,-1.91
2023-03-27T23:14:01.512Z,-1.94
2023-03-27T23:16:29.010Z,-1.99
2023-03-27T23:18:56.447Z,-1.80
2023-03-27T23:21:23.877Z,-1.70
2023-03-27T23:23:51.542Z,-1.65
2023-03-27T23:26:18.888Z,-1.66
2023-03-27T23:28:52.023Z,-1.73
2023-03-27T23:31:20.411Z,-1.69
2023-03-27T23:33:50.917Z,-1.62
2023-03-27T23:36:22.105Z,-1.77
2023-03-27T23:38:49.963Z,-1.79
2023-03-27T23:41:18.584Z,-1.84
2023-03-27T23:43:46.306Z,-1.82
2023-03-27T23:46:15.886Z,-1.88
2023-03-27T23:48:44.716Z,-1.91
2023-03-27T23:51:14.249Z,-1.87
2023-03-27T23:53:43.347Z,-1.93
2023-03-27T23:56:11.611Z,-1.95
2023-03-27T23:58:39.047Z,-2.00
